createdAt,value
2018-12-16T00:00:20.347Z,1.77
2018-12-16T00:02:48.179Z,1.66
2018-12-16T00:05:15.438Z,1.50
2018-12-16T00:07:42.760Z,1.35
2018-12-16T00:10:09.612Z,1.54
2018-12-16T00:12:38.202Z,1.82
2018-12-16T00:15:06.455Z,1.77
2018-12-16T00:17:34.995Z,1.70
2018-12-16T00:20:02.467Z,1.43
2018-12-16T00:22:30.696Z,1.10
2018-12-16T00:27:30.767Z,1.46
2018-12-16T00:29:58.604Z,1.70
2018-12-16T00:32:26.772Z,1.48
2018-12-16T00:34:55.576Z,1.17
2018-12-16T00:39:54.993Z,1.52
2018-12-16T00:42:22.371Z,1.48
2018-12-16T00:44:50.943Z,1.47
2018-12-16T00:47:19.095Z,1.20
2018-12-16T00:49:46.965Z,0.91
2018-12-16T00:52:14.458Z,0.82
2018-12-16T00:54:43.698Z,0.81
2018-12-16T00:57:11.804Z,0.83
2018-12-16T00:59:40.693Z,0.92
2018-12-16T01:02:08.048Z,0.95
2018-12-16T01:04:35.418Z,0.92
2018-12-16T01:07:03.278Z,0.91
2018-12-16T01:09:30.295Z,1.10
2018-12-16T01:14:31.095Z,0.89
2018-12-16T01:16:58.827Z,0.72
2018-12-16T01:19:26.289Z,0.63
2018-12-16T01:21:53.857Z,0.58
2018-12-16T01:24:21.966Z,0.63
2018-12-16T01:26:49.746Z,0.59
2018-12-16T01:29:17.899Z,0.68
2018-12-16T01:34:16.917Z,0.63
2018-12-16T01:36:43.365Z,0.24
2018-12-16T01:39:09.903Z,0.26
2018-12-16T01:41:36.406Z,0.39
2018-12-16T01:44:02.845Z,0.51
2018-12-16T01:46:29.312Z,0.58
2018-12-16T01:48:55.913Z,0.72
2018-12-16T01:51:22.503Z,0.75
2018-12-16T01:53:48.945Z,0.66
2018-12-16T01:56:15.507Z,0.55
2018-12-16T01:58:41.984Z,0.38
2018-12-16T02:01:08.518Z,0.41
2018-12-16T02:03:35.082Z,0.15
2018-12-16T02:06:01.593Z,0.04
2018-12-16T02:08:28.056Z,0.16
2018-12-16T02:10:54.553Z,0.28
2018-12-16T02:13:21.060Z,0.38
2018-12-16T02:15:47.604Z,0.39
2018-12-16T02:18:14.086Z,0.48
2018-12-16T02:20:40.546Z,0.22
2018-12-16T02:23:07.331Z,0.06
2018-12-16T02:25:33.818Z,-0.09
2018-12-16T02:28:00.466Z,-0.05
2018-12-16T02:30:26.910Z,-0.10
2018-12-16T02:32:53.804Z,-0.17
2018-12-16T02:35:20.512Z,-0.35
2018-12-16T02:37:46.986Z,-0.44
2018-12-16T02:40:13.502Z,-0.46
2018-12-16T02:42:40.117Z,-0.44
2018-12-16T02:45:06.607Z,-0.32
2018-12-16T02:47:33.280Z,-0.13
2018-12-16T02:49:59.727Z,0.06
2018-12-16T02:52:26.950Z,-0.06
2018-12-16T02:54:53.710Z,-0.27
2018-12-16T02:57:20.177Z,-0.20
2018-12-16T02:59:46.667Z,-0.13
2018-12-16T03:02:13.150Z,0.02
2018-12-16T03:04:39.693Z,-0.05
2018-12-16T03:07:06.242Z,-0.38
2018-12-16T03:09:32.851Z,-0.48
2018-12-16T03:11:59.332Z,-0.31
2018-12-16T03:14:25.877Z,-0.19
2018-12-16T03:16:52.432Z,-0.21
2018-12-16T03:19:18.984Z,-0.35
2018-12-16T03:21:46.189Z,-0.72
2018-12-16T03:24:12.735Z,-0.96
2018-12-16T03:26:39.467Z,-0.76
2018-12-16T03:29:06.090Z,-0.76
2018-12-16T03:31:32.597Z,-0.95
2018-12-16T03:33:59.165Z,-0.80
2018-12-16T03:36:25.776Z,-0.67
2018-12-16T03:38:52.332Z,-0.50
2018-12-16T03:41:18.808Z,-0.30
2018-12-16T03:43:45.307Z,-0.30
2018-12-16T03:46:11.843Z,-0.52
2018-12-16T03:48:38.651Z,-0.58
2018-12-16T03:51:05.116Z,-0.67
2018-12-16T03:53:31.750Z,-0.61
2018-12-16T03:55:58.198Z,-0.45
2018-12-16T03:58:24.802Z,-0.38
2018-12-16T04:00:51.295Z,-0.92
2018-12-16T04:03:17.739Z,-1.18
2018-12-16T04:05:44.210Z,-0.97
2018-12-16T04:08:10.781Z,-0.46
2018-12-16T04:10:37.239Z,-0.38
2018-12-16T04:13:03.729Z,-0.63
2018-12-16T04:15:30.246Z,-0.81
2018-12-16T04:17:57.006Z,-1.50
2018-12-16T04:20:23.521Z,-1.99
2018-12-16T04:22:51.394Z,-2.00
2018-12-16T04:25:19.215Z,-1.94
2018-12-16T04:27:46.346Z,-1.95
2018-12-16T04:30:13.850Z,-1.90
2018-12-16T04:32:41.619Z,-1.77
2018-12-16T04:35:09.130Z,-1.90
2018-12-16T04:37:37.212Z,-1.93
2018-12-16T04:40:05.502Z,-2.10
2018-12-16T04:42:33.271Z,-1.87
2018-12-16T04:45:01.437Z,-1.48
2018-12-16T04:47:28.387Z,-1.24
2018-12-16T04:49:57.218Z,-1.39
2018-12-16T04:52:24.941Z,-1.43
2018-12-16T04:57:26.293Z,-1.41
2018-12-16T04:59:54.739Z,-1.30
2018-12-16T05:02:22.731Z,-1.49
2018-12-16T05:04:49.184Z,-1.66
2018-12-16T05:07:18.895Z,-1.57
2018-12-16T05:09:48.001Z,-1.57
2018-12-16T05:12:16.249Z,-1.70
2018-12-16T05:14:43.714Z,-1.86
2018-12-16T05:17:10.491Z,-1.91
2018-12-16T05:19:38.224Z,-1.35
2018-12-16T05:22:06.211Z,-1.26
2018-12-16T05:24:34.910Z,-1.22
2018-12-16T05:27:02.892Z,-1.46
2018-12-16T05:29:29.707Z,-1.42
2018-12-16T05:31:57.775Z,-1.50
2018-12-16T05:34:25.551Z,-1.57
2018-12-16T05:36:56.129Z,-1.27
2018-12-16T05:39:23.951Z,-1.49
2018-12-16T05:41:54.914Z,-1.53
2018-12-16T05:44:22.043Z,-1.88
2018-12-16T05:46:49.294Z,-2.03
2018-12-16T05:49:16.600Z,-1.84
2018-12-16T05:51:43.396Z,-1.77
2018-12-16T05:54:12.389Z,-1.90
2018-12-16T05:56:40.358Z,-1.64
2018-12-16T05:59:08.549Z,-1.60
2018-12-16T06:01:36.517Z,-1.63
2018-12-16T06:04:04.294Z,-1.69
2018-12-16T06:06:32.242Z,-1.77
2018-12-16T06:09:00.013Z,-1.69
2018-12-16T06:11:27.311Z,-1.61
2018-12-16T06:13:55.123Z,-1.48
2018-12-16T06:16:23.315Z,-1.69
2018-12-16T06:18:49.908Z,-2.04
2018-12-16T06:21:17.960Z,-1.90
2018-12-16T06:23:45.462Z,-1.63
2018-12-16T06:26:12.777Z,-1.70
2018-12-16T06:28:40.051Z,-2.01
2018-12-16T06:31:08.570Z,-2.01
2018-12-16T06:33:36.449Z,-1.70
2018-12-16T06:36:04.183Z,-1.90
2018-12-16T06:38:31.422Z,-1.69
2018-12-16T06:40:58.892Z,-1.57
2018-12-16T06:43:26.468Z,-1.87
2018-12-16T06:45:53.735Z,-1.91
2018-12-16T06:48:21.860Z,-1.80
2018-12-16T06:50:49.050Z,-1.63
2018-12-16T06:53:16.056Z,-1.67
2018-12-16T06:55:44.284Z,-1.73
2018-12-16T06:58:12.119Z,-1.82
2018-12-16T07:00:39.490Z,-2.13
2018-12-16T07:05:37.493Z,-2.28
2018-12-16T07:08:04.008Z,-1.96
2018-12-16T07:10:30.488Z,-1.71
2018-12-16T07:12:56.993Z,-1.75
2018-12-16T07:15:23.679Z,-1.72
2018-12-16T07:17:50.160Z,-1.69
2018-12-16T07:20:16.656Z,-1.53
2018-12-16T07:22:43.801Z,-1.11
2018-12-16T07:25:10.251Z,-1.02
2018-12-16T07:27:36.714Z,-1.01
2018-12-16T07:30:06.230Z,-0.96
2018-12-16T07:32:37.572Z,-0.92
2018-12-16T07:35:06.875Z,-1.06
2018-12-16T07:37:34.287Z,-1.20
2018-12-16T07:40:00.973Z,-0.90
2018-12-16T07:42:28.257Z,-1.00
2018-12-16T07:44:55.707Z,-0.67
2018-12-16T07:47:24.912Z,-0.71
2018-12-16T07:49:51.527Z,-1.02
2018-12-16T07:52:18.735Z,-0.90
2018-12-16T07:54:47.885Z,-0.67
2018-12-16T07:57:14.718Z,-0.37
2018-12-16T07:59:42.301Z,-0.08
2018-12-16T08:02:10.203Z,0.07
2018-12-16T08:04:37.374Z,0.22
2018-12-16T08:07:04.828Z,0.35
2018-12-16T08:09:34.008Z,0.25
2018-12-16T08:12:01.096Z,0.42
2018-12-16T08:14:27.670Z,0.57
2018-12-16T08:16:55.706Z,0.58
2018-12-16T08:19:22.222Z,0.50
2018-12-16T08:21:48.796Z,0.44
2018-12-16T08:24:15.363Z,1.05
2018-12-16T08:26:41.890Z,1.09
2018-12-16T08:29:08.361Z,0.84
2018-12-16T08:31:35.285Z,0.78
2018-12-16T08:34:01.755Z,1.02
2018-12-16T08:36:28.277Z,1.21
2018-12-16T08:38:54.850Z,1.18
2018-12-16T08:41:21.324Z,1.11
2018-12-16T08:43:47.843Z,1.13
2018-12-16T08:46:14.358Z,1.27
2018-12-16T08:48:40.811Z,1.25
2018-12-16T08:51:07.425Z,1.34
2018-12-16T08:53:33.918Z,1.48
2018-12-16T08:56:00.453Z,1.07
2018-12-16T08:58:26.925Z,1.37
2018-12-16T09:00:53.474Z,1.64
2018-12-16T09:03:20.179Z,2.36
2018-12-16T09:05:46.697Z,2.06
2018-12-16T09:08:13.159Z,2.11
2018-12-16T09:10:39.627Z,1.86
2018-12-16T09:13:06.154Z,1.93
2018-12-16T09:15:32.606Z,2.27
2018-12-16T09:17:59.051Z,2.28
2018-12-16T09:20:25.582Z,2.61
2018-12-16T09:22:52.198Z,2.40
2018-12-16T09:25:18.750Z,2.55
2018-12-16T09:27:45.431Z,2.78
2018-12-16T09:30:12.160Z,2.72
2018-12-16T09:32:38.610Z,2.62
2018-12-16T09:35:05.068Z,2.97
2018-12-16T09:37:31.530Z,3.00
2018-12-16T09:39:58.117Z,2.80
2018-12-16T09:42:24.678Z,2.97
2018-12-16T09:44:51.191Z,3.05
2018-12-16T09:47:17.661Z,3.59
2018-12-16T09:49:44.609Z,3.65
2018-12-16T09:52:11.099Z,3.69
2018-12-16T09:54:44.046Z,3.27
2018-12-16T09:57:06.188Z,3.39
2018-12-16T09:59:32.637Z,3.91
2018-12-16T10:01:59.110Z,3.92
2018-12-16T10:04:25.738Z,3.84
2018-12-16T10:06:52.452Z,3.58
2018-12-16T10:09:19.498Z,3.83
2018-12-16T10:11:46.337Z,4.03
2018-12-16T10:14:12.818Z,4.01
2018-12-16T10:16:41.835Z,3.67
2018-12-16T10:19:08.402Z,4.21
2018-12-16T10:21:34.937Z,4.47
2018-12-16T10:24:01.365Z,4.54
2018-12-16T10:26:27.902Z,4.47
2018-12-16T10:28:54.347Z,4.28
2018-12-16T10:31:20.790Z,4.86
2018-12-16T10:33:47.255Z,5.14
2018-12-16T10:36:13.697Z,4.45
2018-12-16T10:38:40.128Z,4.35
2018-12-16T10:41:06.570Z,4.76
2018-12-16T10:43:33.038Z,5.26
2018-12-16T10:45:59.474Z,5.46
2018-12-16T10:48:25.957Z,5.48
2018-12-16T10:50:52.404Z,5.35
2018-12-16T10:53:18.840Z,5.51
2018-12-16T10:55:45.273Z,5.46
2018-12-16T10:58:11.706Z,5.77
2018-12-16T11:00:38.144Z,5.44
2018-12-16T11:03:04.760Z,5.61
2018-12-16T11:05:31.214Z,6.06
2018-12-16T11:07:57.633Z,5.81
2018-12-16T11:10:24.107Z,5.12
2018-12-16T11:12:50.551Z,4.82
2018-12-16T11:15:17.039Z,4.22
2018-12-16T11:17:43.511Z,4.19
2018-12-16T11:20:09.947Z,3.76
2018-12-16T11:22:36.416Z,3.89
2018-12-16T11:25:05.831Z,4.94
2018-12-16T11:27:31.356Z,5.38
2018-12-16T11:29:57.769Z,5.21
2018-12-16T11:32:24.278Z,5.58
2018-12-16T11:34:50.728Z,6.18
2018-12-16T11:37:17.157Z,6.18
2018-12-16T11:39:43.634Z,5.94
2018-12-16T11:42:10.075Z,6.01
2018-12-16T11:44:36.506Z,5.61
2018-12-16T11:47:02.950Z,5.49
2018-12-16T11:49:29.415Z,5.43
2018-12-16T11:51:55.853Z,5.35
2018-12-16T11:54:22.328Z,5.20
2018-12-16T11:56:48.747Z,5.16
2018-12-16T11:59:15.181Z,5.19
2018-12-16T12:01:41.629Z,5.05
2018-12-16T12:04:08.060Z,4.61
2018-12-16T12:06:34.497Z,4.58
2018-12-16T12:09:00.942Z,4.69
2018-12-16T12:11:27.380Z,4.80
2018-12-16T12:13:53.798Z,4.80
2018-12-16T12:16:20.242Z,4.73
2018-12-16T12:18:46.665Z,5.02
2018-12-16T12:21:13.085Z,4.85
2018-12-16T12:23:39.552Z,4.91
2018-12-16T12:26:05.991Z,4.63
2018-12-16T12:28:32.429Z,4.42
2018-12-16T12:30:59.098Z,4.68
2018-12-16T12:33:25.569Z,4.91
2018-12-16T12:35:52.239Z,4.56
2018-12-16T12:38:18.683Z,4.90
2018-12-16T12:40:45.137Z,4.76
2018-12-16T12:43:11.579Z,4.55
2018-12-16T12:45:38.028Z,4.23
2018-12-16T12:48:04.603Z,4.56
2018-12-16T12:50:31.029Z,4.32
2018-12-16T12:52:57.826Z,4.67
2018-12-16T12:55:26.991Z,4.98
2018-12-16T12:57:54.115Z,5.33
2018-12-16T13:00:20.946Z,4.98
2018-12-16T13:02:48.170Z,4.98
2018-12-16T13:05:15.891Z,4.70
2018-12-16T13:07:42.462Z,4.61
2018-12-16T13:10:08.904Z,4.83
2018-12-16T13:12:35.672Z,5.28
2018-12-16T13:15:02.116Z,5.31
2018-12-16T13:17:28.554Z,5.15
2018-12-16T13:19:55.239Z,5.38
2018-12-16T13:22:21.720Z,5.10
2018-12-16T13:24:48.155Z,5.14
2018-12-16T13:27:14.589Z,5.01
2018-12-16T13:29:41.043Z,4.85
2018-12-16T13:32:07.476Z,4.79
2018-12-16T13:34:33.899Z,4.68
2018-12-16T13:37:00.341Z,4.68
2018-12-16T13:39:26.773Z,4.64
2018-12-16T13:41:53.204Z,4.76
2018-12-16T13:44:19.660Z,4.91
2018-12-16T13:46:46.111Z,5.06
2018-12-16T13:49:12.575Z,5.18
2018-12-16T13:51:39.019Z,4.82
2018-12-16T13:54:05.491Z,5.04
2018-12-16T13:56:31.972Z,4.72
2018-12-16T13:58:58.421Z,4.71
2018-12-16T14:01:27.597Z,4.96
2018-12-16T14:03:54.051Z,5.04
2018-12-16T14:06:20.516Z,4.70
2018-12-16T14:08:47.080Z,4.56
2018-12-16T14:11:13.518Z,4.98
2018-12-16T14:13:40.002Z,5.12
2018-12-16T14:16:06.729Z,4.80
2018-12-16T14:18:37.614Z,5.05
2018-12-16T14:21:04.120Z,4.70
2018-12-16T14:23:30.544Z,4.53
2018-12-16T14:25:58.798Z,4.80
2018-12-16T14:28:25.247Z,4.82
2018-12-16T14:30:51.709Z,4.59
2018-12-16T14:33:18.260Z,4.96
2018-12-16T14:35:46.560Z,4.59
2018-12-16T14:38:13.059Z,4.43
2018-12-16T14:40:39.526Z,4.87
2018-12-16T14:43:05.974Z,4.83
2018-12-16T14:48:07.931Z,4.63
2018-12-16T14:50:38.819Z,4.54
2018-12-16T14:53:08.993Z,4.89
2018-12-16T14:55:43.870Z,4.56
2018-12-16T14:58:11.371Z,4.54
2018-12-16T15:00:38.117Z,4.52
2018-12-16T15:03:05.297Z,4.59
2018-12-16T15:05:32.280Z,4.33
2018-12-16T15:07:58.710Z,4.40
2018-12-16T15:10:25.155Z,4.28
2018-12-16T15:12:51.623Z,4.12
2018-12-16T15:15:18.071Z,4.29
2018-12-16T15:17:44.542Z,4.03
2018-12-16T15:20:11.002Z,3.85
2018-12-16T15:22:37.442Z,3.89
2018-12-16T15:25:03.896Z,3.82
2018-12-16T15:27:30.388Z,4.02
2018-12-16T15:29:57.416Z,3.96
2018-12-16T15:32:23.874Z,4.18
2018-12-16T15:34:50.385Z,4.19
2018-12-16T15:37:16.825Z,4.15
2018-12-16T15:39:43.278Z,4.26
2018-12-16T15:42:09.742Z,4.06
2018-12-16T15:44:36.807Z,3.98
2018-12-16T15:47:03.269Z,3.85
2018-12-16T15:49:29.800Z,3.69
2018-12-16T15:51:56.251Z,3.72
2018-12-16T15:54:22.720Z,3.53
2018-12-16T15:56:49.183Z,3.45
2018-12-16T15:59:16.315Z,3.36
2018-12-16T16:01:43.303Z,3.42
2018-12-16T16:04:09.815Z,3.37
2018-12-16T16:06:36.733Z,3.23
2018-12-16T16:09:03.191Z,2.85
2018-12-16T16:11:29.675Z,2.84
2018-12-16T16:13:56.152Z,2.98
2018-12-16T16:18:54.147Z,2.78
2018-12-16T16:21:20.616Z,2.77
2018-12-16T16:23:47.581Z,2.91
2018-12-16T16:26:16.360Z,2.95
2018-12-16T16:28:42.588Z,2.89
2018-12-16T16:31:09.034Z,2.80
2018-12-16T16:33:35.503Z,2.91
2018-12-16T16:36:01.977Z,2.81
2018-12-16T16:38:28.458Z,2.62
2018-12-16T16:40:54.971Z,2.34
2018-12-16T16:43:21.705Z,2.45
2018-12-16T16:45:48.165Z,2.63
2018-12-16T16:48:14.768Z,2.47
2018-12-16T16:50:41.240Z,2.29
2018-12-16T16:53:08.568Z,2.43
2018-12-16T16:55:35.031Z,2.57
2018-12-16T16:58:01.468Z,2.62
2018-12-16T17:00:27.930Z,2.57
2018-12-16T17:02:54.400Z,2.67
2018-12-16T17:05:20.868Z,2.65
2018-12-16T17:07:47.338Z,2.56
2018-12-16T17:10:13.950Z,2.47
2018-12-16T17:12:40.413Z,2.12
2018-12-16T17:15:06.876Z,2.10
2018-12-16T17:17:39.623Z,2.34
2018-12-16T17:20:06.071Z,2.39
2018-12-16T17:22:32.546Z,2.42
2018-12-16T17:24:59.073Z,2.39
2018-12-16T17:27:25.520Z,2.22
2018-12-16T17:29:51.987Z,2.07
2018-12-16T17:32:18.480Z,2.15
2018-12-16T17:34:44.941Z,2.22
2018-12-16T17:37:11.388Z,2.13
2018-12-16T17:39:37.886Z,2.07
2018-12-16T17:42:04.324Z,2.07
2018-12-16T17:44:30.766Z,2.09
2018-12-16T17:46:57.294Z,1.83
2018-12-16T17:49:23.761Z,1.87
2018-12-16T17:51:50.247Z,1.94
2018-12-16T17:54:16.725Z,1.99
2018-12-16T17:56:43.315Z,2.42
2018-12-16T17:59:10.117Z,2.15
2018-12-16T18:01:36.595Z,1.98
2018-12-16T18:04:03.061Z,2.16
2018-12-16T18:06:29.507Z,1.99
2018-12-16T18:08:56.094Z,2.04
2018-12-16T18:11:22.767Z,1.94
2018-12-16T18:13:49.252Z,1.70
2018-12-16T18:16:15.779Z,1.71
2018-12-16T18:18:42.254Z,1.68
2018-12-16T18:21:08.787Z,1.64
2018-12-16T18:23:35.293Z,1.74
2018-12-16T18:26:01.758Z,1.82
2018-12-16T18:28:28.535Z,1.85
2018-12-16T18:30:55.103Z,1.66
2018-12-16T18:33:21.596Z,1.48
2018-12-16T18:35:48.098Z,1.60
2018-12-16T18:38:14.596Z,1.65
2018-12-16T18:40:42.906Z,1.56
2018-12-16T18:43:10.771Z,1.73
2018-12-16T18:45:37.242Z,1.87
2018-12-16T18:48:03.823Z,1.85
2018-12-16T18:50:32.209Z,1.86
2018-12-16T18:52:59.362Z,1.86
2018-12-16T18:55:25.830Z,1.59
2018-12-16T18:57:52.299Z,1.28
2018-12-16T19:00:21.899Z,0.70
2018-12-16T19:02:48.359Z,0.90
2018-12-16T19:05:14.866Z,1.06
2018-12-16T19:07:42.028Z,1.30
2018-12-16T19:10:08.477Z,1.20
2018-12-16T19:12:35.157Z,1.33
2018-12-16T19:15:01.656Z,1.74
2018-12-16T19:17:28.129Z,2.15
2018-12-16T19:19:54.582Z,1.75
2018-12-16T19:22:21.083Z,1.70
2018-12-16T19:24:47.559Z,1.67
2018-12-16T19:27:13.998Z,1.66
2018-12-16T19:29:40.545Z,1.64
2018-12-16T19:32:07.020Z,1.52
2018-12-16T19:34:35.008Z,1.53
2018-12-16T19:37:01.461Z,1.46
2018-12-16T19:39:27.912Z,1.53
2018-12-16T19:41:55.187Z,1.55
2018-12-16T19:44:21.707Z,1.59
2018-12-16T19:46:48.455Z,1.72
2018-12-16T19:49:14.963Z,1.66
2018-12-16T19:51:41.960Z,1.87
2018-12-16T19:54:08.435Z,1.70
2018-12-16T19:56:35.379Z,1.75
2018-12-16T19:59:02.374Z,2.01
2018-12-16T20:01:28.984Z,1.92
2018-12-16T20:03:55.437Z,1.96
2018-12-16T20:06:21.946Z,2.11
2018-12-16T20:08:48.866Z,1.86
2018-12-16T20:11:16.094Z,1.50
2018-12-16T20:13:45.052Z,1.60
2018-12-16T20:16:12.148Z,2.00
2018-12-16T20:18:39.140Z,1.87
2018-12-16T20:21:05.664Z,1.78
2018-12-16T20:23:34.880Z,1.86
2018-12-16T20:26:01.645Z,1.82
2018-12-16T20:28:29.043Z,1.83
2018-12-16T20:30:56.164Z,1.53
2018-12-16T20:33:22.620Z,1.34
2018-12-16T20:35:49.091Z,1.46
2018-12-16T20:38:15.541Z,1.52
2018-12-16T20:40:42.078Z,1.43
2018-12-16T20:43:08.531Z,1.04
2018-12-16T20:45:35.107Z,1.24
2018-12-16T20:48:01.595Z,1.47
2018-12-16T20:50:28.069Z,1.38
2018-12-16T20:52:54.795Z,1.36
2018-12-16T20:55:21.260Z,1.47
2018-12-16T20:57:47.713Z,1.12
2018-12-16T21:00:14.222Z,0.86
2018-12-16T21:02:40.660Z,0.44
2018-12-16T21:05:07.132Z,0.69
2018-12-16T21:07:33.614Z,1.04
2018-12-16T21:10:00.081Z,1.43
2018-12-16T21:12:26.536Z,1.67
2018-12-16T21:14:54.217Z,1.90
2018-12-16T21:17:20.651Z,2.16
2018-12-16T21:19:47.117Z,1.92
2018-12-16T21:22:13.617Z,1.54
2018-12-16T21:24:40.059Z,1.51
2018-12-16T21:27:06.501Z,1.34
2018-12-16T21:29:32.992Z,1.74
2018-12-16T21:31:59.429Z,1.70
2018-12-16T21:34:25.895Z,1.83
2018-12-16T21:36:52.397Z,1.49
2018-12-16T21:39:18.859Z,1.28
2018-12-16T21:41:45.576Z,1.64
2018-12-16T21:44:12.396Z,1.17
2018-12-16T21:46:39.218Z,0.89
2018-12-16T21:49:05.912Z,1.11
2018-12-16T21:51:32.428Z,1.44
2018-12-16T21:53:58.883Z,1.63
2018-12-16T21:56:25.355Z,1.78
2018-12-16T21:58:51.885Z,1.68
2018-12-16T22:01:18.365Z,1.37
2018-12-16T22:03:44.834Z,1.08
2018-12-16T22:06:11.290Z,0.72
2018-12-16T22:08:38.008Z,0.47
2018-12-16T22:11:04.450Z,0.61
2018-12-16T22:13:30.895Z,0.86
2018-12-16T22:15:57.327Z,1.04
2018-12-16T22:18:23.777Z,0.92
2018-12-16T22:20:50.234Z,0.69
2018-12-16T22:23:16.695Z,0.77
2018-12-16T22:25:43.162Z,0.94
2018-12-16T22:28:09.959Z,1.25
2018-12-16T22:30:36.389Z,1.35
2018-12-16T22:33:02.812Z,1.35
2018-12-16T22:35:29.291Z,1.46
2018-12-16T22:37:55.735Z,1.49
2018-12-16T22:40:22.192Z,1.41
2018-12-16T22:42:52.309Z,1.17
2018-12-16T22:45:20.498Z,1.35
2018-12-16T22:47:46.925Z,1.35
2018-12-16T22:50:13.412Z,1.23
2018-12-16T22:52:41.227Z,1.17
2018-12-16T22:55:07.718Z,1.16
2018-12-16T22:57:34.181Z,1.12
2018-12-16T23:00:00.658Z,1.16
2018-12-16T23:02:30.774Z,1.29
2018-12-16T23:04:57.269Z,1.20
2018-12-16T23:07:23.720Z,1.03
2018-12-16T23:09:50.202Z,0.90
2018-12-16T23:12:16.679Z,0.86
2018-12-16T23:14:43.156Z,0.92
2018-12-16T23:17:09.618Z,1.08
2018-12-16T23:19:36.534Z,0.85
2018-12-16T23:22:02.989Z,0.77
2018-12-16T23:24:29.431Z,0.54
2018-12-16T23:26:55.898Z,0.27
2018-12-16T23:29:22.334Z,0.44
2018-12-16T23:31:48.783Z,0.35
2018-12-16T23:34:15.257Z,0.60
2018-12-16T23:36:43.647Z,0.58
2018-12-16T23:39:10.643Z,0.61
2018-12-16T23:41:37.113Z,0.64
2018-12-16T23:44:03.560Z,0.78
2018-12-16T23:46:30.003Z,1.01
2018-12-16T23:48:56.465Z,1.18
2018-12-16T23:51:22.937Z,1.11
2018-12-16T23:53:49.469Z,0.84
2018-12-16T23:56:15.958Z,0.95
2018-12-16T23:58:42.419Z,1.01
